sensor_id;sensor_type;location;lat;lon;timestamp;temperature;humidity
74416;SHT31;62850;42.428;25.618;2023-04-15T00:01:04;13.38;82.22
74416;SHT31;62850;42.428;25.618;2023-04-15T00:03:30;13.27;82.36
74416;SHT31;62850;42.428;25.618;2023-04-15T00:05:57;13.23;81.91
74416;SHT31;62850;42.428;25.618;2023-04-15T00:08:22;13.24;81.34
74416;SHT31;62850;42.428;25.618;2023-04-15T00:10:48;13.18;81.54
74416;SHT31;62850;42.428;25.618;2023-04-15T00:13:14;13.10;81.60
74416;SHT31;62850;42.428;25.618;2023-04-15T00:15:39;13.08;82.00
74416;SHT31;62850;42.428;25.618;2023-04-15T00:18:05;13.10;82.39
74416;SHT31;62850;42.428;25.618;2023-04-15T00:20:32;13.13;82.78
74416;SHT31;62850;42.428;25.618;2023-04-15T00:22:58;13.11;82.76
74416;SHT31;62850;42.428;25.618;2023-04-15T00:25:25;13.10;82.74
74416;SHT31;62850;42.428;25.618;2023-04-15T00:27:50;12.97;82.97
74416;SHT31;62850;42.428;25.618;2023-04-15T00:30:16;13.00;82.95
74416;SHT31;62850;42.428;25.618;2023-04-15T00:32:41;13.04;82.89
74416;SHT31;62850;42.428;25.618;2023-04-15T00:35:07;13.03;83.11
74416;SHT31;62850;42.428;25.618;2023-04-15T00:37:33;13.03;83.25
74416;SHT31;62850;42.428;25.618;2023-04-15T00:39:59;12.94;84.13
74416;SHT31;62850;42.428;25.618;2023-04-15T00:42:25;12.87;84.22
74416;SHT31;62850;42.428;25.618;2023-04-15T00:44:52;12.83;84.08
74416;SHT31;62850;42.428;25.618;2023-04-15T00:47:17;12.80;84.12
74416;SHT31;62850;42.428;25.618;2023-04-15T00:49:43;12.77;84.35
74416;SHT31;62850;42.428;25.618;2023-04-15T00:52:09;12.72;84.61
74416;SHT31;62850;42.428;25.618;2023-04-15T00:54:34;12.76;84.28
74416;SHT31;62850;42.428;25.618;2023-04-15T00:57:00;12.63;84.40
74416;SHT31;62850;42.428;25.618;2023-04-15T00:59:26;12.66;84.52
74416;SHT31;62850;42.428;25.618;2023-04-15T01:01:52;12.52;84.63
74416;SHT31;62850;42.428;25.618;2023-04-15T01:04:17;12.53;84.59
74416;SHT31;62850;42.428;25.618;2023-04-15T01:06:43;12.52;84.59
74416;SHT31;62850;42.428;25.618;2023-04-15T01:09:08;12.50;84.90
74416;SHT31;62850;42.428;25.618;2023-04-15T01:11:35;12.36;85.13
74416;SHT31;62850;42.428;25.618;2023-04-15T01:14:01;12.50;84.97
74416;SHT31;62850;42.428;25.618;2023-04-15T01:16:27;12.56;84.73
74416;SHT31;62850;42.428;25.618;2023-04-15T01:18:53;12.65;84.23
74416;SHT31;62850;42.428;25.618;2023-04-15T01:21:19;12.66;84.05
74416;SHT31;62850;42.428;25.618;2023-04-15T01:23:46;12.63;83.87
74416;SHT31;62850;42.428;25.618;2023-04-15T01:26:13;12.60;84.20
74416;SHT31;62850;42.428;25.618;2023-04-15T01:28:38;12.48;84.32
74416;SHT31;62850;42.428;25.618;2023-04-15T01:31:13;12.36;84.79
74416;SHT31;62850;42.428;25.618;2023-04-15T01:33:40;12.39;84.98
74416;SHT31;62850;42.428;25.618;2023-04-15T01:36:07;12.46;84.65
74416;SHT31;62850;42.428;25.618;2023-04-15T01:38:35;12.42;84.35
74416;SHT31;62850;42.428;25.618;2023-04-15T01:41:00;12.46;84.00
74416;SHT31;62850;42.428;25.618;2023-04-15T01:43:27;12.49;84.22
74416;SHT31;62850;42.428;25.618;2023-04-15T01:45:52;12.53;83.88
74416;SHT31;62850;42.428;25.618;2023-04-15T01:48:18;12.56;83.89
74416;SHT31;62850;42.428;25.618;2023-04-15T01:50:44;12.50;83.71
74416;SHT31;62850;42.428;25.618;2023-04-15T01:53:09;12.44;84.20
74416;SHT31;62850;42.428;25.618;2023-04-15T01:55:35;12.29;84.02
74416;SHT31;62850;42.428;25.618;2023-04-15T01:58:01;12.38;84.15
74416;SHT31;62850;42.428;25.618;2023-04-15T02:00:27;12.38;84.05
74416;SHT31;62850;42.428;25.618;2023-04-15T02:02:53;12.44;84.30
74416;SHT31;62850;42.428;25.618;2023-04-15T02:05:18;12.45;84.28
74416;SHT31;62850;42.428;25.618;2023-04-15T02:07:44;12.50;84.35
74416;SHT31;62850;42.428;25.618;2023-04-15T02:10:10;12.60;84.20
74416;SHT31;62850;42.428;25.618;2023-04-15T02:12:37;12.65;83.88
74416;SHT31;62850;42.428;25.618;2023-04-15T02:15:03;12.63;83.79
74416;SHT31;62850;42.428;25.618;2023-04-15T02:17:29;12.73;83.56
74416;SHT31;62850;42.428;25.618;2023-04-15T02:19:55;12.79;83.20
74416;SHT31;62850;42.428;25.618;2023-04-15T02:22:21;12.82;83.23
74416;SHT31;62850;42.428;25.618;2023-04-15T02:24:47;12.87;83.33
74416;SHT31;62850;42.428;25.618;2023-04-15T02:27:16;12.89;83.25
74416;SHT31;62850;42.428;25.618;2023-04-15T02:29:43;12.79;82.80
74416;SHT31;62850;42.428;25.618;2023-04-15T02:32:09;12.73;83.06
74416;SHT31;62850;42.428;25.618;2023-04-15T02:34:36;12.55;83.06
74416;SHT31;62850;42.428;25.618;2023-04-15T02:37:03;12.59;83.25
74416;SHT31;62850;42.428;25.618;2023-04-15T02:39:29;12.62;83.29
74416;SHT31;62850;42.428;25.618;2023-04-15T02:41:55;12.60;83.65
74416;SHT31;62850;42.428;25.618;2023-04-15T02:44:20;12.60;83.99
74416;SHT31;62850;42.428;25.618;2023-04-15T02:46:47;12.42;83.33
74416;SHT31;62850;42.428;25.618;2023-04-15T02:49:17;12.39;83.16
74416;SHT31;62850;42.428;25.618;2023-04-15T02:51:42;12.32;83.18
74416;SHT31;62850;42.428;25.618;2023-04-15T02:54:08;12.44;83.18
74416;SHT31;62850;42.428;25.618;2023-04-15T02:56:33;12.49;83.53
74416;SHT31;62850;42.428;25.618;2023-04-15T02:58:59;12.46;83.44
74416;SHT31;62850;42.428;25.618;2023-04-15T03:01:25;12.62;83.24
74416;SHT31;62850;42.428;25.618;2023-04-15T03:03:51;12.65;83.12
74416;SHT31;62850;42.428;25.618;2023-04-15T03:06:16;12.73;83.38
74416;SHT31;62850;42.428;25.618;2023-04-15T03:08:42;12.77;83.31
74416;SHT31;62850;42.428;25.618;2023-04-15T03:11:07;12.77;83.22
74416;SHT31;62850;42.428;25.618;2023-04-15T03:13:33;12.77;82.64
74416;SHT31;62850;42.428;25.618;2023-04-15T03:15:58;12.75;82.55
74416;SHT31;62850;42.428;25.618;2023-04-15T03:18:24;12.67;82.40
74416;SHT31;62850;42.428;25.618;2023-04-15T03:20:49;12.66;82.29
74416;SHT31;62850;42.428;25.618;2023-04-15T03:23:15;12.65;82.02
74416;SHT31;62850;42.428;25.618;2023-04-15T03:25:40;12.72;82.53
74416;SHT31;62850;42.428;25.618;2023-04-15T03:28:06;12.83;82.97
74416;SHT31;62850;42.428;25.618;2023-04-15T03:30:31;12.89;83.09
74416;SHT31;62850;42.428;25.618;2023-04-15T03:32:57;12.89;83.02
74416;SHT31;62850;42.428;25.618;2023-04-15T03:35:22;12.94;83.24
74416;SHT31;62850;42.428;25.618;2023-04-15T03:37:48;12.97;82.95
74416;SHT31;62850;42.428;25.618;2023-04-15T03:40:13;12.93;82.75
74416;SHT31;62850;42.428;25.618;2023-04-15T03:42:39;12.84;82.54
74416;SHT31;62850;42.428;25.618;2023-04-15T03:45:06;12.76;82.25
74416;SHT31;62850;42.428;25.618;2023-04-15T03:47:32;12.83;82.02
74416;SHT31;62850;42.428;25.618;2023-04-15T03:49:57;12.89;81.82
74416;SHT31;62850;42.428;25.618;2023-04-15T03:52:22;12.83;82.24
74416;SHT31;62850;42.428;25.618;2023-04-15T03:54:48;12.75;82.32
74416;SHT31;62850;42.428;25.618;2023-04-15T03:57:13;12.87;82.34
74416;SHT31;62850;42.428;25.618;2023-04-15T03:59:39;12.90;82.40
74416;SHT31;62850;42.428;25.618;2023-04-15T04:02:05;12.99;82.60
74416;SHT31;62850;42.428;25.618;2023-04-15T04:04:30;12.99;82.36
74416;SHT31;62850;42.428;25.618;2023-04-15T04:06:56;12.92;82.58
74416;SHT31;62850;42.428;25.618;2023-04-15T04:09:22;12.89;82.56
74416;SHT31;62850;42.428;25.618;2023-04-15T04:11:47;12.87;82.07
74416;SHT31;62850;42.428;25.618;2023-04-15T04:14:12;12.94;81.76
74416;SHT31;62850;42.428;25.618;2023-04-15T04:16:38;12.92;81.81
74416;SHT31;62850;42.428;25.618;2023-04-15T04:19:03;12.87;81.59
74416;SHT31;62850;42.428;25.618;2023-04-15T04:21:29;12.84;81.49
74416;SHT31;62850;42.428;25.618;2023-04-15T04:23:55;12.89;81.43
74416;SHT31;62850;42.428;25.618;2023-04-15T04:26:21;12.89;81.64
74416;SHT31;62850;42.428;25.618;2023-04-15T04:28:47;12.90;82.20
74416;SHT31;62850;42.428;25.618;2023-04-15T04:31:12;12.87;82.39
74416;SHT31;62850;42.428;25.618;2023-04-15T04:33:38;12.92;82.78
74416;SHT31;62850;42.428;25.618;2023-04-15T04:36:03;12.94;82.52
74416;SHT31;62850;42.428;25.618;2023-04-15T04:38:29;12.94;82.56
74416;SHT31;62850;42.428;25.618;2023-04-15T04:40:55;12.93;82.52
74416;SHT31;62850;42.428;25.618;2023-04-15T04:43:20;12.92;82.76
74416;SHT31;62850;42.428;25.618;2023-04-15T04:45:46;12.82;83.21
74416;SHT31;62850;42.428;25.618;2023-04-15T04:48:11;12.92;82.89
74416;SHT31;62850;42.428;25.618;2023-04-15T04:50:37;13.00;82.71
74416;SHT31;62850;42.428;25.618;2023-04-15T04:53:02;13.03;82.78
74416;SHT31;62850;42.428;25.618;2023-04-15T04:55:28;13.08;82.66
74416;SHT31;62850;42.428;25.618;2023-04-15T04:57:53;13.15;82.78
74416;SHT31;62850;42.428;25.618;2023-04-15T05:00:19;13.15;82.51
74416;SHT31;62850;42.428;25.618;2023-04-15T05:02:44;13.18;82.53
74416;SHT31;62850;42.428;25.618;2023-04-15T05:05:10;13.07;83.06
74416;SHT31;62850;42.428;25.618;2023-04-15T05:07:36;12.99;83.05
74416;SHT31;62850;42.428;25.618;2023-04-15T05:10:03;12.72;83.96
74416;SHT31;62850;42.428;25.618;2023-04-15T05:12:28;12.66;84.76
74416;SHT31;62850;42.428;25.618;2023-04-15T05:14:54;12.72;84.64
74416;SHT31;62850;42.428;25.618;2023-04-15T05:17:19;12.80;84.48
74416;SHT31;62850;42.428;25.618;2023-04-15T05:19:44;12.80;84.12
74416;SHT31;62850;42.428;25.618;2023-04-15T05:22:10;12.77;84.05
74416;SHT31;62850;42.428;25.618;2023-04-15T05:24:35;12.90;83.98
74416;SHT31;62850;42.428;25.618;2023-04-15T05:27:01;12.94;84.01
74416;SHT31;62850;42.428;25.618;2023-04-15T05:29:27;13.00;84.10
74416;SHT31;62850;42.428;25.618;2023-04-15T05:31:52;13.13;83.93
74416;SHT31;62850;42.428;25.618;2023-04-15T05:34:18;13.23;83.52
74416;SHT31;62850;42.428;25.618;2023-04-15T05:36:43;13.24;83.45
74416;SHT31;62850;42.428;25.618;2023-04-15T05:39:08;13.35;82.67
74416;SHT31;62850;42.428;25.618;2023-04-15T05:41:34;13.38;82.48
74416;SHT31;62850;42.428;25.618;2023-04-15T05:44:00;13.48;82.70
74416;SHT31;62850;42.428;25.618;2023-04-15T05:46:25;13.50;83.27
74416;SHT31;62850;42.428;25.618;2023-04-15T05:48:51;13.37;84.41
74416;SHT31;62850;42.428;25.618;2023-04-15T05:51:17;13.47;83.35
74416;SHT31;62850;42.428;25.618;2023-04-15T05:53:42;13.52;83.13
74416;SHT31;62850;42.428;25.618;2023-04-15T05:56:08;13.66;83.39
74416;SHT31;62850;42.428;25.618;2023-04-15T05:58:33;13.65;83.02
74416;SHT31;62850;42.428;25.618;2023-04-15T06:00:59;13.68;82.66
74416;SHT31;62850;42.428;25.618;2023-04-15T06:03:24;13.72;82.85
74416;SHT31;62850;42.428;25.618;2023-04-15T06:05:50;13.72;82.70
74416;SHT31;62850;42.428;25.618;2023-04-15T06:08:15;13.75;82.62
74416;SHT31;62850;42.428;25.618;2023-04-15T06:10:41;13.87;82.13
74416;SHT31;62850;42.428;25.618;2023-04-15T06:13:07;13.87;81.85
74416;SHT31;62850;42.428;25.618;2023-04-15T06:15:32;13.93;81.68
74416;SHT31;62850;42.428;25.618;2023-04-15T06:17:58;13.98;81.51
74416;SHT31;62850;42.428;25.618;2023-04-15T06:20:23;14.06;81.47
74416;SHT31;62850;42.428;25.618;2023-04-15T06:22:49;14.06;81.35
74416;SHT31;62850;42.428;25.618;2023-04-15T06:25:15;14.10;81.44
74416;SHT31;62850;42.428;25.618;2023-04-15T06:27:41;14.19;81.04
74416;SHT31;62850;42.428;25.618;2023-04-15T06:30:10;14.20;80.83
74416;SHT31;62850;42.428;25.618;2023-04-15T06:32:36;14.20;81.21
74416;SHT31;62850;42.428;25.618;2023-04-15T06:35:01;14.32;80.76
74416;SHT31;62850;42.428;25.618;2023-04-15T06:37:28;14.41;80.45
74416;SHT31;62850;42.428;25.618;2023-04-15T06:39:53;14.43;80.34
74416;SHT31;62850;42.428;25.618;2023-04-15T06:42:19;14.53;79.64
74416;SHT31;62850;42.428;25.618;2023-04-15T06:44:44;14.47;80.43
74416;SHT31;62850;42.428;25.618;2023-04-15T06:47:10;14.48;80.22
74416;SHT31;62850;42.428;25.618;2023-04-15T06:49:37;14.41;79.82
74416;SHT31;62850;42.428;25.618;2023-04-15T06:52:03;14.40;80.03
74416;SHT31;62850;42.428;25.618;2023-04-15T06:54:29;14.40;80.68
74416;SHT31;62850;42.428;25.618;2023-04-15T06:56:55;14.38;80.42
74416;SHT31;62850;42.428;25.618;2023-04-15T06:59:20;14.37;80.53
74416;SHT31;62850;42.428;25.618;2023-04-15T07:01:46;14.38;80.55
74416;SHT31;62850;42.428;25.618;2023-04-15T07:04:11;14.41;80.90
74416;SHT31;62850;42.428;25.618;2023-04-15T07:06:37;14.43;80.79
74416;SHT31;62850;42.428;25.618;2023-04-15T07:09:03;14.38;80.73
74416;SHT31;62850;42.428;25.618;2023-04-15T07:11:29;14.33;80.21
74416;SHT31;62850;42.428;25.618;2023-04-15T07:13:54;14.33;80.82
74416;SHT31;62850;42.428;25.618;2023-04-15T07:16:20;14.33;80.18
74416;SHT31;62850;42.428;25.618;2023-04-15T07:18:46;14.32;80.68
74416;SHT31;62850;42.428;25.618;2023-04-15T07:21:11;14.33;80.34
74416;SHT31;62850;42.428;25.618;2023-04-15T07:23:39;14.34;80.44
74416;SHT31;62850;42.428;25.618;2023-04-15T07:26:05;14.45;80.61
74416;SHT31;62850;42.428;25.618;2023-04-15T07:28:30;14.48;79.84
74416;SHT31;62850;42.428;25.618;2023-04-15T07:30:56;14.53;80.04
74416;SHT31;62850;42.428;25.618;2023-04-15T07:33:21;14.60;79.82
74416;SHT31;62850;42.428;25.618;2023-04-15T07:35:47;14.65;79.54
74416;SHT31;62850;42.428;25.618;2023-04-15T07:38:22;14.74;79.16
74416;SHT31;62850;42.428;25.618;2023-04-15T07:40:48;14.70;78.95
74416;SHT31;62850;42.428;25.618;2023-04-15T07:43:13;14.65;79.16
74416;SHT31;62850;42.428;25.618;2023-04-15T07:45:39;14.82;78.45
74416;SHT31;62850;42.428;25.618;2023-04-15T07:48:05;14.95;78.37
74416;SHT31;62850;42.428;25.618;2023-04-15T07:50:31;15.02;78.10
74416;SHT31;62850;42.428;25.618;2023-04-15T07:52:56;14.96;78.01
74416;SHT31;62850;42.428;25.618;2023-04-15T07:55:22;14.96;78.30
74416;SHT31;62850;42.428;25.618;2023-04-15T07:57:48;15.02;79.58
74416;SHT31;62850;42.428;25.618;2023-04-15T08:00:15;15.01;78.05
74416;SHT31;62850;42.428;25.618;2023-04-15T08:02:41;15.02;77.44
74416;SHT31;62850;42.428;25.618;2023-04-15T08:05:11;15.02;77.93
74416;SHT31;62850;42.428;25.618;2023-04-15T08:07:38;15.12;78.41
74416;SHT31;62850;42.428;25.618;2023-04-15T08:10:06;15.18;77.10
74416;SHT31;62850;42.428;25.618;2023-04-15T08:12:31;15.12;76.67
74416;SHT31;62850;42.428;25.618;2023-04-15T08:14:57;14.96;77.36
74416;SHT31;62850;42.428;25.618;2023-04-15T08:17:23;15.11;77.42
74416;SHT31;62850;42.428;25.618;2023-04-15T08:19:52;15.66;77.21
74416;SHT31;62850;42.428;25.618;2023-04-15T08:22:18;15.97;74.76
74416;SHT31;62850;42.428;25.618;2023-04-15T08:24:43;15.91;74.47
74416;SHT31;62850;42.428;25.618;2023-04-15T08:27:08;15.90;74.74
74416;SHT31;62850;42.428;25.618;2023-04-15T08:29:34;16.07;75.24
74416;SHT31;62850;42.428;25.618;2023-04-15T08:32:00;16.17;74.98
74416;SHT31;62850;42.428;25.618;2023-04-15T08:34:26;16.65;71.57
74416;SHT31;62850;42.428;25.618;2023-04-15T08:36:52;16.99;70.26
74416;SHT31;62850;42.428;25.618;2023-04-15T08:39:17;17.07;69.31
74416;SHT31;62850;42.428;25.618;2023-04-15T08:41:50;17.23;68.94
74416;SHT31;62850;42.428;25.618;2023-04-15T08:44:16;17.55;68.37
74416;SHT31;62850;42.428;25.618;2023-04-15T08:46:42;17.95;63.77
74416;SHT31;62850;42.428;25.618;2023-04-15T08:49:12;18.02;62.35
74416;SHT31;62850;42.428;25.618;2023-04-15T08:51:40;17.59;62.73
74416;SHT31;62850;42.428;25.618;2023-04-15T08:54:07;17.58;64.30
74416;SHT31;62850;42.428;25.618;2023-04-15T08:56:33;17.54;64.57
74416;SHT31;62850;42.428;25.618;2023-04-15T08:58:59;17.35;64.83
74416;SHT31;62850;42.428;25.618;2023-04-15T09:01:25;17.16;65.26
74416;SHT31;62850;42.428;25.618;2023-04-15T09:03:53;17.18;66.58
74416;SHT31;62850;42.428;25.618;2023-04-15T09:06:20;17.32;67.37
74416;SHT31;62850;42.428;25.618;2023-04-15T09:08:46;17.04;65.98
74416;SHT31;62850;42.428;25.618;2023-04-15T09:11:12;16.89;69.03
74416;SHT31;62850;42.428;25.618;2023-04-15T09:13:39;17.06;66.44
74416;SHT31;62850;42.428;25.618;2023-04-15T09:16:05;17.13;66.25
74416;SHT31;62850;42.428;25.618;2023-04-15T09:18:35;17.24;66.90
74416;SHT31;62850;42.428;25.618;2023-04-15T09:21:05;17.61;66.91
74416;SHT31;62850;42.428;25.618;2023-04-15T09:23:33;17.65;64.46
74416;SHT31;62850;42.428;25.618;2023-04-15T09:26:00;18.07;62.56
74416;SHT31;62850;42.428;25.618;2023-04-15T09:28:27;18.63;60.65
74416;SHT31;62850;42.428;25.618;2023-04-15T09:31:00;19.08;58.34
74416;SHT31;62850;42.428;25.618;2023-04-15T09:33:27;19.49;57.37
74416;SHT31;62850;42.428;25.618;2023-04-15T09:36:00;19.90;56.83
74416;SHT31;62850;42.428;25.618;2023-04-15T09:38:26;20.21;56.44
74416;SHT31;62850;42.428;25.618;2023-04-15T09:40:52;20.55;53.21
74416;SHT31;62850;42.428;25.618;2023-04-15T09:43:17;20.80;52.58
74416;SHT31;62850;42.428;25.618;2023-04-15T09:45:51;20.87;50.57
74416;SHT31;62850;42.428;25.618;2023-04-15T09:48:22;21.20;53.14
74416;SHT31;62850;42.428;25.618;2023-04-15T09:50:58;21.37;49.81
74416;SHT31;62850;42.428;25.618;2023-04-15T09:53:24;21.40;48.26
74416;SHT31;62850;42.428;25.618;2023-04-15T09:55:55;21.47;46.80
74416;SHT31;62850;42.428;25.618;2023-04-15T09:58:21;21.75;46.47
74416;SHT31;62850;42.428;25.618;2023-04-15T10:00:49;21.66;46.21
74416;SHT31;62850;42.428;25.618;2023-04-15T10:03:20;21.71;46.44
74416;SHT31;62850;42.428;25.618;2023-04-15T10:05:47;21.98;46.84
74416;SHT31;62850;42.428;25.618;2023-04-15T10:08:15;21.69;43.43
74416;SHT31;62850;42.428;25.618;2023-04-15T10:10:41;21.57;45.33
74416;SHT31;62850;42.428;25.618;2023-04-15T10:13:07;21.74;46.75
74416;SHT31;62850;42.428;25.618;2023-04-15T10:15:34;21.85;44.72
74416;SHT31;62850;42.428;25.618;2023-04-15T10:18:00;21.95;44.59
74416;SHT31;62850;42.428;25.618;2023-04-15T10:20:27;21.92;44.50
74416;SHT31;62850;42.428;25.618;2023-04-15T10:22:54;21.90;44.15
74416;SHT31;62850;42.428;25.618;2023-04-15T10:25:20;22.00;44.38
74416;SHT31;62850;42.428;25.618;2023-04-15T10:27:46;22.10;45.37
74416;SHT31;62850;42.428;25.618;2023-04-15T10:30:13;22.14;46.04
74416;SHT31;62850;42.428;25.618;2023-04-15T10:32:40;22.41;44.94
74416;SHT31;62850;42.428;25.618;2023-04-15T10:35:06;22.26;45.15
74416;SHT31;62850;42.428;25.618;2023-04-15T10:37:35;21.99;44.85
74416;SHT31;62850;42.428;25.618;2023-04-15T10:40:29;22.03;45.01
74416;SHT31;62850;42.428;25.618;2023-04-15T10:43:00;22.14;45.90
74416;SHT31;62850;42.428;25.618;2023-04-15T10:45:27;22.29;46.48
74416;SHT31;62850;42.428;25.618;2023-04-15T10:47:57;22.35;44.03
74416;SHT31;62850;42.428;25.618;2023-04-15T10:50:26;22.57;42.82
74416;SHT31;62850;42.428;25.618;2023-04-15T10:52:53;22.61;43.29
74416;SHT31;62850;42.428;25.618;2023-04-15T10:55:31;22.79;42.97
74416;SHT31;62850;42.428;25.618;2023-04-15T10:58:01;23.11;41.43
74416;SHT31;62850;42.428;25.618;2023-04-15T11:00:31;23.11;41.82
74416;SHT31;62850;42.428;25.618;2023-04-15T11:03:06;23.09;41.10
74416;SHT31;62850;42.428;25.618;2023-04-15T11:08:11;23.20;42.38
74416;SHT31;62850;42.428;25.618;2023-04-15T11:13:04;23.26;40.90
74416;SHT31;62850;42.428;25.618;2023-04-15T11:18:09;23.08;40.32
74416;SHT31;62850;42.428;25.618;2023-04-15T11:20:36;23.08;41.98
74416;SHT31;62850;42.428;25.618;2023-04-15T11:23:03;22.94;42.69
74416;SHT31;62850;42.428;25.618;2023-04-15T11:25:31;22.81;42.88
74416;SHT31;62850;42.428;25.618;2023-04-15T11:27:58;22.86;42.87
74416;SHT31;62850;42.428;25.618;2023-04-15T11:30:25;22.91;42.63
74416;SHT31;62850;42.428;25.618;2023-04-15T11:32:53;23.18;42.76
74416;SHT31;62850;42.428;25.618;2023-04-15T11:35:19;23.47;41.60
74416;SHT31;62850;42.428;25.618;2023-04-15T11:37:47;23.63;41.40
74416;SHT31;62850;42.428;25.618;2023-04-15T11:40:14;23.73;40.81
74416;SHT31;62850;42.428;25.618;2023-04-15T11:42:42;23.69;41.92
74416;SHT31;62850;42.428;25.618;2023-04-15T11:45:09;23.73;42.59
74416;SHT31;62850;42.428;25.618;2023-04-15T11:47:38;23.92;40.22
74416;SHT31;62850;42.428;25.618;2023-04-15T11:50:22;24.11;39.12
74416;SHT31;62850;42.428;25.618;2023-04-15T11:52:54;24.22;38.21
74416;SHT31;62850;42.428;25.618;2023-04-15T11:55:21;24.08;38.36
74416;SHT31;62850;42.428;25.618;2023-04-15T11:57:49;24.06;40.02
74416;SHT31;62850;42.428;25.618;2023-04-15T12:00:15;24.10;35.34
74416;SHT31;62850;42.428;25.618;2023-04-15T12:02:42;24.11;36.47
74416;SHT31;62850;42.428;25.618;2023-04-15T12:05:08;23.90;37.06
74416;SHT31;62850;42.428;25.618;2023-04-15T12:07:59;23.96;36.65
74416;SHT31;62850;42.428;25.618;2023-04-15T12:10:24;23.69;37.73
74416;SHT31;62850;42.428;25.618;2023-04-15T12:12:51;23.86;38.26
74416;SHT31;62850;42.428;25.618;2023-04-15T12:15:21;23.88;37.83
74416;SHT31;62850;42.428;25.618;2023-04-15T12:17:48;24.07;34.99
74416;SHT31;62850;42.428;25.618;2023-04-15T12:20:20;23.98;37.38
74416;SHT31;62850;42.428;25.618;2023-04-15T12:22:46;23.97;35.55
74416;SHT31;62850;42.428;25.618;2023-04-15T12:25:11;24.03;36.51
74416;SHT31;62850;42.428;25.618;2023-04-15T12:27:37;24.08;36.19
74416;SHT31;62850;42.428;25.618;2023-04-15T12:30:04;24.13;35.97
74416;SHT31;62850;42.428;25.618;2023-04-15T12:32:34;24.22;36.98
74416;SHT31;62850;42.428;25.618;2023-04-15T12:34:59;24.28;37.27
74416;SHT31;62850;42.428;25.618;2023-04-15T12:37:25;24.42;36.81
74416;SHT31;62850;42.428;25.618;2023-04-15T12:39:51;24.56;36.49
74416;SHT31;62850;42.428;25.618;2023-04-15T12:42:18;24.51;37.68
74416;SHT31;62850;42.428;25.618;2023-04-15T12:44:45;24.47;39.62
74416;SHT31;62850;42.428;25.618;2023-04-15T12:47:11;24.52;38.49
74416;SHT31;62850;42.428;25.618;2023-04-15T12:49:37;24.32;39.25
74416;SHT31;62850;42.428;25.618;2023-04-15T12:52:03;24.32;38.81
74416;SHT31;62850;42.428;25.618;2023-04-15T12:54:30;24.42;39.20
74416;SHT31;62850;42.428;25.618;2023-04-15T12:56:55;24.35;38.26
74416;SHT31;62850;42.428;25.618;2023-04-15T12:59:22;24.47;38.39
74416;SHT31;62850;42.428;25.618;2023-04-15T13:01:51;24.66;38.08
74416;SHT31;62850;42.428;25.618;2023-04-15T13:04:18;24.77;38.11
74416;SHT31;62850;42.428;25.618;2023-04-15T13:06:43;24.62;37.38
74416;SHT31;62850;42.428;25.618;2023-04-15T13:09:09;24.56;38.58
74416;SHT31;62850;42.428;25.618;2023-04-15T13:11:35;24.61;36.90
74416;SHT31;62850;42.428;25.618;2023-04-15T13:14:05;24.52;40.14
74416;SHT31;62850;42.428;25.618;2023-04-15T13:16:31;24.32;37.35
74416;SHT31;62850;42.428;25.618;2023-04-15T13:19:01;24.42;37.74
74416;SHT31;62850;42.428;25.618;2023-04-15T13:21:27;24.32;37.68
74416;SHT31;62850;42.428;25.618;2023-04-15T13:23:53;24.13;39.71
74416;SHT31;62850;42.428;25.618;2023-04-15T13:26:18;23.73;39.42
74416;SHT31;62850;42.428;25.618;2023-04-15T13:28:44;23.80;39.36
74416;SHT31;62850;42.428;25.618;2023-04-15T13:31:10;23.88;40.01
74416;SHT31;62850;42.428;25.618;2023-04-15T13:33:35;23.83;39.77
74416;SHT31;62850;42.428;25.618;2023-04-15T13:36:00;23.84;39.97
74416;SHT31;62850;42.428;25.618;2023-04-15T13:38:26;23.74;40.45
74416;SHT31;62850;42.428;25.618;2023-04-15T13:40:51;23.62;40.45
74416;SHT31;62850;42.428;25.618;2023-04-15T13:43:17;23.46;40.87
74416;SHT31;62850;42.428;25.618;2023-04-15T13:45:43;23.29;41.08
74416;SHT31;62850;42.428;25.618;2023-04-15T13:48:08;23.09;41.82
74416;SHT31;62850;42.428;25.618;2023-04-15T13:50:34;22.83;43.37
74416;SHT31;62850;42.428;25.618;2023-04-15T13:53:00;22.77;43.29
74416;SHT31;62850;42.428;25.618;2023-04-15T13:55:25;22.77;43.07
74416;SHT31;62850;42.428;25.618;2023-04-15T13:57:51;22.64;43.84
74416;SHT31;62850;42.428;25.618;2023-04-15T14:00:17;22.56;43.19
74416;SHT31;62850;42.428;25.618;2023-04-15T14:02:42;22.51;43.48
74416;SHT31;62850;42.428;25.618;2023-04-15T14:05:10;22.53;43.95
74416;SHT31;62850;42.428;25.618;2023-04-15T14:07:35;22.40;44.26
74416;SHT31;62850;42.428;25.618;2023-04-15T14:10:02;22.41;44.52
74416;SHT31;62850;42.428;25.618;2023-04-15T14:12:27;22.39;45.34
74416;SHT31;62850;42.428;25.618;2023-04-15T14:14:53;22.51;44.57
74416;SHT31;62850;42.428;25.618;2023-04-15T14:17:18;22.60;44.43
74416;SHT31;62850;42.428;25.618;2023-04-15T14:19:44;22.51;44.64
74416;SHT31;62850;42.428;25.618;2023-04-15T14:22:09;22.56;45.06
74416;SHT31;62850;42.428;25.618;2023-04-15T14:24:35;22.88;44.73
74416;SHT31;62850;42.428;25.618;2023-04-15T14:27:01;22.99;44.49
74416;SHT31;62850;42.428;25.618;2023-04-15T14:29:26;22.86;45.68
74416;SHT31;62850;42.428;25.618;2023-04-15T14:31:52;23.02;44.17
74416;SHT31;62850;42.428;25.618;2023-04-15T14:34:17;23.26;44.21
74416;SHT31;62850;42.428;25.618;2023-04-15T14:36:43;23.42;43.31
74416;SHT31;62850;42.428;25.618;2023-04-15T14:39:09;23.45;43.69
74416;SHT31;62850;42.428;25.618;2023-04-15T14:41:35;23.33;43.65
74416;SHT31;62850;42.428;25.618;2023-04-15T14:44:00;23.38;43.76
74416;SHT31;62850;42.428;25.618;2023-04-15T14:46:26;23.46;43.81
74416;SHT31;62850;42.428;25.618;2023-04-15T14:48:51;23.47;43.26
74416;SHT31;62850;42.428;25.618;2023-04-15T14:51:17;23.42;43.58
74416;SHT31;62850;42.428;25.618;2023-04-15T14:53:43;23.49;43.54
74416;SHT31;62850;42.428;25.618;2023-04-15T14:56:10;23.65;43.42
74416;SHT31;62850;42.428;25.618;2023-04-15T14:58:35;23.73;43.92
74416;SHT31;62850;42.428;25.618;2023-04-15T15:01:02;23.70;43.35
74416;SHT31;62850;42.428;25.618;2023-04-15T15:03:28;23.65;43.35
74416;SHT31;62850;42.428;25.618;2023-04-15T15:05:53;23.49;43.97
74416;SHT31;62850;42.428;25.618;2023-04-15T15:08:19;23.36;43.22
74416;SHT31;62850;42.428;25.618;2023-04-15T15:10:44;23.41;43.55
74416;SHT31;62850;42.428;25.618;2023-04-15T15:13:10;23.25;44.24
74416;SHT31;62850;42.428;25.618;2023-04-15T15:15:36;23.18;44.70
74416;SHT31;62850;42.428;25.618;2023-04-15T15:18:02;23.15;44.46